Twentynine Palms (Self) Airport Twentynine Palms US
ICAO: KNXP
IATA: NXP
Category: Medium
Scheduled Services: No

Elevation: 2051 ft
TransAlt. 18000 ft.

Airport Communications:
ATIS:38.635
GND:41.7
PMSV METRO:30.83
TWR:135.525

KNXP Zoom In..

If you have problems with the map follow the link
https://www.worldairports.se/pages/airport.php?
ICAO=KNXP

Runways:

(A) RW 10 length 8015 ft width 150 ft
---- / hdg 98

(B) RW 28 length 8015 ft width 150 ft
---- / hdg 278

Location; KNXP
Day. 06 / Time. 12.56 Zulu
* Altimeter: 30.26
* Temperature: 07° c. 44.6°f.
* Wind from: 290° Speed 05 kn.
Dewpoint: 06° c.
Visibility: 10 Statute Miles.
Clouds: Clear (automated report).

KNXP 061256Z AUTO 29005KT 10SM CLR 07/06 A3026 RMK AO2 SLP234 T00670056


Wind From 290°
Speed 05 kn.

 
 
jpsmedia worldairports.se 2019   terms of use